createdAt,value
2023-02-02T00:02:41.719Z,4.70
2023-02-02T00:06:43.675Z,4.70
2023-02-02T00:10:45.751Z,4.60
2023-02-02T00:14:47.504Z,4.50
2023-02-02T00:18:49.481Z,4.50
2023-02-02T00:22:53.708Z,4.40
2023-02-02T00:26:58.460Z,4.40
2023-02-02T00:31:00.397Z,4.50
2023-02-02T00:35:02.455Z,4.60
2023-02-02T00:39:04.336Z,4.70
2023-02-02T00:43:06.200Z,4.70
2023-02-02T00:47:08.130Z,4.70
2023-02-02T00:51:10.094Z,4.80
2023-02-02T00:55:12.180Z,4.70
2023-02-02T00:59:14.018Z,4.60
2023-02-02T01:03:16.298Z,4.60
2023-02-02T01:07:18.141Z,4.60
2023-02-02T01:11:20.129Z,4.60
2023-02-02T01:20:48.376Z,4.50
2023-02-02T01:24:50.288Z,4.50
2023-02-02T01:28:52.154Z,4.50
2023-02-02T01:32:53.995Z,4.60
2023-02-02T01:36:55.845Z,4.70
2023-02-02T01:40:58.052Z,4.70
2023-02-02T01:45:24.569Z,4.80
2023-02-02T01:49:26.506Z,4.80
2023-02-02T01:53:28.812Z,4.80
2023-02-02T01:57:42.614Z,4.80
2023-02-02T02:01:45.180Z,4.70
2023-02-02T02:06:07.694Z,4.60
2023-02-02T02:10:10.378Z,4.80
2023-02-02T02:14:31.919Z,4.80
2023-02-02T02:18:59.735Z,4.80
2023-02-02T02:23:42.557Z,4.80
2023-02-02T02:28:21.930Z,4.80
2023-02-02T02:32:44.842Z,4.80
2023-02-02T02:36:51.771Z,4.70
2023-02-02T02:41:00.256Z,4.80
2023-02-02T02:45:03.313Z,4.90
2023-02-02T02:49:08.096Z,4.90
2023-02-02T02:53:23.143Z,5.00
2023-02-02T02:57:55.683Z,5.10
2023-02-02T03:03:06.266Z,5.10
2023-02-02T03:07:18.793Z,5.10
2023-02-02T03:11:20.495Z,5.10
2023-02-02T03:15:22.695Z,5.10
2023-02-02T03:19:24.625Z,5.20
2023-02-02T03:23:26.773Z,5.20
2023-02-02T03:27:28.701Z,5.20
2023-02-02T03:31:30.518Z,5.20
2023-02-02T03:35:32.475Z,5.30
2023-02-02T03:39:37.351Z,5.20
2023-02-02T03:43:39.293Z,5.10
2023-02-02T03:47:41.322Z,5.10
2023-02-02T03:51:44.823Z,5.20
2023-02-02T03:56:03.239Z,5.20
2023-02-02T04:00:23.256Z,5.20
2023-02-02T04:04:27.213Z,5.20
2023-02-02T04:08:31.636Z,5.30
2023-02-02T04:12:33.667Z,5.30
2023-02-02T04:16:37.696Z,5.30
2023-02-02T04:20:39.755Z,5.30
2023-02-02T04:24:44.085Z,5.30
2023-02-02T04:28:48.570Z,5.40
2023-02-02T04:32:51.529Z,5.40
2023-02-02T04:36:53.604Z,5.40
2023-02-02T04:40:55.950Z,5.30
2023-02-02T04:45:00.369Z,5.30
2023-02-02T04:49:02.433Z,5.30
2023-02-02T04:53:04.915Z,5.30
2023-02-02T04:57:06.793Z,5.30
2023-02-02T05:01:28.420Z,5.30
2023-02-02T05:05:34.202Z,5.30
2023-02-02T05:09:40.873Z,5.30
2023-02-02T05:13:51.413Z,5.30
2023-02-02T05:17:55.662Z,5.40
2023-02-02T05:22:00.089Z,5.40
2023-02-02T05:26:04.503Z,5.30
2023-02-02T05:30:07.509Z,5.40
2023-02-02T05:34:11.519Z,5.30
2023-02-02T05:38:16.328Z,5.30
2023-02-02T05:42:18.212Z,5.40
2023-02-02T05:46:20.187Z,5.40
2023-02-02T05:50:24.899Z,5.30
2023-02-02T05:54:26.757Z,5.40
2023-02-02T05:58:28.656Z,5.40
2023-02-02T06:02:42.228Z,5.40
2023-02-02T06:07:19.148Z,5.40
2023-02-02T06:11:20.860Z,5.50
2023-02-02T06:15:22.913Z,5.50
2023-02-02T06:19:27.659Z,5.40
2023-02-02T06:23:29.930Z,5.40
2023-02-02T06:27:34.515Z,5.50
2023-02-02T06:31:40.389Z,5.40
2023-02-02T06:35:42.579Z,5.40
2023-02-02T06:39:44.500Z,5.40
2023-02-02T06:43:48.983Z,5.50
2023-02-02T06:47:51.057Z,5.40
2023-02-02T06:51:52.884Z,5.50
2023-02-02T06:55:57.179Z,5.50
2023-02-02T07:00:01.769Z,5.50
2023-02-02T07:04:03.907Z,5.50
2023-02-02T07:08:05.916Z,5.40
2023-02-02T07:12:13.408Z,5.40
2023-02-02T07:16:16.543Z,5.40
2023-02-02T07:20:18.608Z,5.40
2023-02-02T07:24:22.781Z,5.40
2023-02-02T07:28:24.588Z,5.50
2023-02-02T07:32:26.517Z,5.60
2023-02-02T07:36:41.589Z,5.60
2023-02-02T07:40:43.614Z,5.50
2023-02-02T07:44:45.426Z,5.60
2023-02-02T07:48:47.469Z,5.60
2023-02-02T07:52:49.333Z,5.60
2023-02-02T07:56:51.191Z,5.60
2023-02-02T08:00:53.244Z,5.70
2023-02-02T08:04:55.400Z,5.70
2023-02-02T08:08:57.373Z,5.70
2023-02-02T08:13:02.053Z,5.80
2023-02-02T08:17:04.080Z,5.80
2023-02-02T08:21:08.466Z,5.80
2023-02-02T08:25:10.292Z,5.80
2023-02-02T08:29:12.126Z,5.90
2023-02-02T08:33:14.047Z,5.80
2023-02-02T08:37:15.818Z,5.80
2023-02-02T08:41:21.924Z,5.80
2023-02-02T08:46:01.237Z,5.80
2023-02-02T08:49:45.706Z,5.90
2023-02-02T08:53:47.685Z,5.90
2023-02-02T08:57:51.431Z,5.90
2023-02-02T09:01:53.247Z,5.90
2023-02-02T09:05:58.186Z,5.90
2023-02-02T09:10:03.122Z,5.80
2023-02-02T09:14:06.918Z,5.80
2023-02-02T09:18:11.920Z,5.80
2023-02-02T09:22:13.765Z,5.80
2023-02-02T09:26:19.408Z,5.90
2023-02-02T09:30:21.468Z,6.00
2023-02-02T09:34:23.195Z,6.00
2023-02-02T09:38:27.129Z,5.90
2023-02-02T09:43:02.146Z,5.90
2023-02-02T09:47:35.664Z,6.00
2023-02-02T09:51:43.438Z,6.00
2023-02-02T09:55:50.680Z,6.00
2023-02-02T09:59:55.072Z,6.00
2023-02-02T10:04:21.572Z,6.00
2023-02-02T10:08:49.088Z,6.00
2023-02-02T10:13:20.399Z,6.10
2023-02-02T10:17:42.255Z,6.00
2023-02-02T10:22:06.559Z,6.10
2023-02-02T10:26:36.785Z,6.00
2023-02-02T10:31:01.184Z,6.00
2023-02-02T10:35:38.369Z,6.00
2023-02-02T10:40:22.997Z,6.00
2023-02-02T10:44:57.147Z,6.00
2023-02-02T10:49:33.123Z,6.00
2023-02-02T10:53:36.245Z,6.10
2023-02-02T10:58:20.993Z,6.10
2023-02-02T11:02:25.458Z,6.20
2023-02-02T11:06:46.312Z,6.30
2023-02-02T11:10:52.329Z,6.50
2023-02-02T11:15:27.301Z,6.60
2023-02-02T11:19:30.582Z,6.60
2023-02-02T11:23:33.684Z,6.70
2023-02-02T11:27:40.071Z,6.70
2023-02-02T11:31:42.372Z,6.70
2023-02-02T11:36:00.356Z,6.80
2023-02-02T11:40:34.765Z,6.80
2023-02-02T11:44:37.436Z,6.80
2023-02-02T11:48:48.621Z,6.90
2023-02-02T11:52:52.783Z,6.90
2023-02-02T11:56:57.727Z,7.00
2023-02-02T12:01:03.164Z,7.10
2023-02-02T12:05:19.970Z,7.20
2023-02-02T12:09:24.827Z,7.00
2023-02-02T12:14:24.386Z,7.00
2023-02-02T12:18:54.311Z,6.90
2023-02-02T12:28:16.547Z,6.90
2023-02-02T12:32:46.072Z,7.00
2023-02-02T12:36:54.349Z,7.00
2023-02-02T12:41:30.308Z,7.00
2023-02-02T12:46:00.891Z,7.10
2023-02-02T12:50:20.568Z,7.10
2023-02-02T12:55:24.342Z,7.10
2023-02-02T12:59:53.427Z,7.00
2023-02-02T13:04:33.405Z,6.90
2023-02-02T13:08:52.189Z,6.80
2023-02-02T13:13:29.631Z,6.80
2023-02-02T13:17:53.853Z,6.90
2023-02-02T13:21:57.087Z,7.10
2023-02-02T13:26:58.390Z,7.20
2023-02-02T13:31:01.400Z,7.30
2023-02-02T13:35:59.083Z,7.20
2023-02-02T13:40:25.558Z,7.20
2023-02-02T13:44:38.886Z,7.10
2023-02-02T13:49:24.633Z,7.00
2023-02-02T13:53:37.111Z,7.10
2023-02-02T14:02:35.842Z,6.90
2023-02-02T14:07:10.906Z,6.80
2023-02-02T14:11:19.996Z,6.80
2023-02-02T14:15:43.706Z,6.80
2023-02-02T14:19:54.443Z,6.90
2023-02-02T14:23:57.747Z,6.90
2023-02-02T14:28:44.110Z,6.90
2023-02-02T14:32:46.697Z,6.90
2023-02-02T14:37:02.463Z,6.90
2023-02-02T14:42:15.553Z,6.90
2023-02-02T14:46:33.092Z,6.80
2023-02-02T14:50:37.879Z,6.70
2023-02-02T14:54:51.914Z,6.70
2023-02-02T14:59:00.572Z,6.60
2023-02-02T15:03:53.346Z,6.60
2023-02-02T15:08:22.121Z,6.50
2023-02-02T15:13:43.929Z,6.30
2023-02-02T15:18:35.262Z,6.30
2023-02-02T15:22:54.872Z,6.30
2023-02-02T15:27:10.168Z,6.20
2023-02-02T15:31:48.045Z,6.20
2023-02-02T15:36:07.717Z,6.20
2023-02-02T15:40:34.980Z,6.20
2023-02-02T15:44:42.193Z,6.10
2023-02-02T15:49:04.368Z,6.00
2023-02-02T15:53:11.958Z,5.90
2023-02-02T15:57:24.105Z,5.90
2023-02-02T16:01:27.491Z,5.90
2023-02-02T16:05:32.546Z,5.90
2023-02-02T16:09:35.608Z,6.00
2023-02-02T16:13:40.819Z,6.00
2023-02-02T16:17:45.987Z,6.00
2023-02-02T16:22:04.739Z,6.00
2023-02-02T16:26:18.077Z,6.00
2023-02-02T16:30:39.082Z,5.90
2023-02-02T16:34:47.104Z,5.70
2023-02-02T16:38:57.680Z,5.20
2023-02-02T16:44:00.369Z,5.10
2023-02-02T16:48:32.838Z,4.90
2023-02-02T16:52:57.474Z,4.90
2023-02-02T16:57:07.252Z,4.90
2023-02-02T17:10:40.282Z,4.60
2023-02-02T17:15:20.893Z,4.50
2023-02-02T17:19:47.720Z,4.50
2023-02-02T17:24:12.409Z,4.30
2023-02-02T17:28:25.513Z,4.30
2023-02-02T17:38:05.323Z,4.40
2023-02-02T17:42:16.306Z,4.60
2023-02-02T17:45:37.030Z,4.30
2023-02-02T17:46:40.006Z,4.80
2023-02-02T17:50:49.327Z,4.80
2023-02-02T17:54:57.112Z,4.70
2023-02-02T17:59:01.658Z,4.50
2023-02-02T18:03:31.872Z,4.50
2023-02-02T18:07:40.051Z,4.60
2023-02-02T18:11:55.304Z,4.60
2023-02-02T18:20:53.230Z,4.70
2023-02-02T18:25:30.435Z,4.70
2023-02-02T18:29:36.469Z,4.80
2023-02-02T18:33:54.125Z,4.90
2023-02-02T18:37:59.084Z,5.00
2023-02-02T18:42:37.490Z,5.00
2023-02-02T18:46:39.638Z,5.00
2023-02-02T18:52:15.563Z,5.00
2023-02-02T18:57:42.331Z,5.00
2023-02-02T19:02:24.077Z,4.80
2023-02-02T19:07:03.529Z,4.70
2023-02-02T19:11:29.110Z,4.60
2023-02-02T19:15:40.724Z,4.50
2023-02-02T19:19:45.943Z,4.40
2023-02-02T19:23:51.315Z,4.40
2023-02-02T19:28:03.769Z,4.40
2023-02-02T19:32:29.371Z,4.40
2023-02-02T20:55:01.960Z,4.60
2023-02-02T20:59:07.411Z,4.60
2023-02-02T21:03:13.504Z,4.60
2023-02-02T21:07:22.157Z,4.70
2023-02-02T21:11:24.245Z,4.60
2023-02-02T21:15:31.583Z,4.60
2023-02-02T21:19:43.560Z,4.60
2023-02-02T21:24:01.962Z,4.50
2023-02-02T21:28:04.190Z,4.50
2023-02-02T21:32:11.682Z,4.50
2023-02-02T21:36:32.371Z,4.50
2023-02-02T21:40:39.299Z,4.50
2023-02-02T21:45:14.246Z,4.50
2023-02-02T21:49:37.071Z,4.50
2023-02-02T21:53:39.085Z,4.50
2023-02-02T21:57:42.304Z,4.40
2023-02-02T22:01:47.687Z,4.40
2023-02-02T22:05:52.030Z,4.30
2023-02-02T22:10:07.254Z,4.30
2023-02-02T22:14:33.565Z,4.30
2023-02-02T22:18:35.606Z,4.30
2023-02-02T22:22:37.688Z,4.30
2023-02-02T22:26:41.789Z,4.30
2023-02-02T22:30:55.295Z,4.30
2023-02-02T22:34:59.965Z,4.20
2023-02-02T22:39:02.060Z,4.20
2023-02-02T22:43:07.222Z,4.10
2023-02-02T22:47:09.207Z,4.10
2023-02-02T22:51:11.107Z,4.10
2023-02-02T22:55:13.558Z,4.10
2023-02-02T22:59:16.404Z,4.20
2023-02-02T23:03:18.539Z,4.30
2023-02-02T23:07:20.434Z,4.30
2023-02-02T23:11:22.234Z,4.40
2023-02-02T23:15:24.107Z,4.40
2023-02-02T23:19:25.948Z,4.50
2023-02-02T23:23:27.858Z,4.50
2023-02-02T23:27:30.854Z,4.60
2023-02-02T23:31:32.796Z,4.60
2023-02-02T23:35:34.829Z,4.70
2023-02-02T23:39:36.823Z,4.70
2023-02-02T23:43:38.668Z,4.70
2023-02-02T23:47:40.447Z,4.70
2023-02-02T23:51:42.311Z,4.80
2023-02-02T23:55:45.783Z,4.70
2023-02-02T23:59:47.667Z,4.80
